createdAt,value
2022-10-25T00:06:59.233Z,2.92
2022-10-25T00:09:32.588Z,2.63
2022-10-25T00:12:06.677Z,2.40
2022-10-25T00:14:39.579Z,2.83
2022-10-25T00:17:12.561Z,2.55
2022-10-25T00:19:52.900Z,2.10
2022-10-25T00:22:26.138Z,2.45
2022-10-25T00:24:59.122Z,2.20
2022-10-25T00:27:31.881Z,2.30
2022-10-25T00:30:05.999Z,3.05
2022-10-25T00:32:38.995Z,2.42
2022-10-25T00:37:46.557Z,2.38
2022-10-25T00:42:52.665Z,3.10
2022-10-25T00:45:27.416Z,2.63
2022-10-25T00:48:04.648Z,2.40
2022-10-25T00:50:47.596Z,2.15
2022-10-25T00:53:24.206Z,2.55
2022-10-25T00:56:03.232Z,2.35
2022-10-25T00:58:39.846Z,2.30
2022-10-25T01:01:14.667Z,1.67
2022-10-25T01:03:52.454Z,2.67
2022-10-25T01:06:32.332Z,2.53
2022-10-25T01:09:06.681Z,2.50
2022-10-25T01:11:39.460Z,2.50
2022-10-25T01:14:15.877Z,2.50
2022-10-25T01:16:58.693Z,1.80
2022-10-25T01:19:47.774Z,2.55
2022-10-25T01:22:28.523Z,2.72
2022-10-25T01:25:28.682Z,2.72
2022-10-25T01:28:08.468Z,2.17
2022-10-25T01:31:07.900Z,1.90
2022-10-25T01:33:50.516Z,3.13
2022-10-25T01:36:32.960Z,3.05
2022-10-25T01:39:15.437Z,2.50
2022-10-25T01:41:58.225Z,3.03
2022-10-25T01:44:40.703Z,2.72
2022-10-25T01:47:26.323Z,3.08
2022-10-25T01:50:03.050Z,2.10
2022-10-25T01:52:36.058Z,2.40
2022-10-25T01:57:59.913Z,2.67
2022-10-25T02:00:37.692Z,2.65
2022-10-25T02:03:19.200Z,3.10
2022-10-25T02:06:02.662Z,2.65
2022-10-25T02:08:40.339Z,2.13
2022-10-25T02:11:23.535Z,2.90
2022-10-25T02:14:08.211Z,3.10
2022-10-25T02:16:45.609Z,2.70
2022-10-25T02:19:23.540Z,2.85
2022-10-25T02:21:59.395Z,2.45
2022-10-25T02:24:37.190Z,2.58
2022-10-25T02:27:12.937Z,2.78
2022-10-25T02:29:47.020Z,2.03
2022-10-25T02:32:22.976Z,3.10
2022-10-25T02:35:00.456Z,2.67
2022-10-25T02:37:41.004Z,2.17
2022-10-25T02:40:16.680Z,2.65
2022-10-25T02:42:54.885Z,2.35
2022-10-25T02:45:27.842Z,2.97
2022-10-25T02:48:05.891Z,2.88
2022-10-25T02:50:40.437Z,2.67
2022-10-25T02:53:13.761Z,1.85
2022-10-25T02:55:46.741Z,2.35
2022-10-25T03:00:53.675Z,2.97
2022-10-25T03:03:27.471Z,2.00
2022-10-25T03:06:01.860Z,2.22
2022-10-25T03:08:35.050Z,1.85
2022-10-25T03:11:09.472Z,2.30
2022-10-25T03:13:42.375Z,2.47
2022-10-25T03:16:16.323Z,2.40
2022-10-25T03:18:49.122Z,2.50
2022-10-25T03:21:23.312Z,2.95
2022-10-25T03:23:56.079Z,2.85
2022-10-25T03:26:28.996Z,3.42
2022-10-25T03:29:01.779Z,2.00
2022-10-25T03:31:34.585Z,2.58
2022-10-25T03:34:07.444Z,2.17
2022-10-25T03:36:41.652Z,2.95
2022-10-25T03:39:14.650Z,2.20
2022-10-25T03:41:47.528Z,2.10
2022-10-25T03:44:21.470Z,3.00
2022-10-25T03:46:54.195Z,1.90
2022-10-25T03:49:31.769Z,2.55
2022-10-25T03:52:07.365Z,3.22
2022-10-25T03:54:42.432Z,2.65
2022-10-25T03:57:15.553Z,2.50
2022-10-25T03:59:50.645Z,3.60
2022-10-25T04:02:23.536Z,2.63
2022-10-25T04:04:59.257Z,2.80
2022-10-25T04:07:33.546Z,2.97
2022-10-25T04:10:07.489Z,3.65
2022-10-25T04:12:42.104Z,2.97
2022-10-25T04:15:18.050Z,2.75
2022-10-25T04:17:54.001Z,2.42
2022-10-25T04:20:29.397Z,2.80
2022-10-25T04:23:06.413Z,2.20
2022-10-25T04:25:39.471Z,2.63
2022-10-25T04:30:45.199Z,2.17
2022-10-25T04:35:57.426Z,3.13
2022-10-25T04:38:33.408Z,2.20
2022-10-25T04:41:06.955Z,2.70
2022-10-25T04:43:39.821Z,2.45
2022-10-25T04:46:12.920Z,2.92
2022-10-25T04:51:18.466Z,2.13
2022-10-25T04:56:26.729Z,2.30
2022-10-25T04:59:02.702Z,2.13
2022-10-25T05:01:36.042Z,3.03
2022-10-25T05:04:09.138Z,4.45
2022-10-25T05:09:16.484Z,2.97
2022-10-25T05:11:49.386Z,2.13
2022-10-25T05:14:22.452Z,2.78
2022-10-25T05:16:57.497Z,2.88
2022-10-25T05:19:31.191Z,2.33
2022-10-25T05:22:04.343Z,2.72
2022-10-25T05:24:38.758Z,2.20
2022-10-25T05:27:11.781Z,2.38
2022-10-25T05:32:17.386Z,2.30
2022-10-25T05:37:23.221Z,2.40
2022-10-25T05:39:58.025Z,3.10
2022-10-25T05:42:31.245Z,2.00
2022-10-25T05:45:04.802Z,2.33
2022-10-25T05:47:37.871Z,2.40
2022-10-25T05:50:11.067Z,2.40
2022-10-25T05:52:44.908Z,2.35
2022-10-25T05:55:21.585Z,1.88
2022-10-25T05:57:54.606Z,1.85
2022-10-25T06:00:29.474Z,1.95
2022-10-25T06:03:03.113Z,1.92
2022-10-25T06:05:36.015Z,1.95
2022-10-25T06:11:08.029Z,2.10
2022-10-25T06:13:49.925Z,1.83
2022-10-25T06:16:25.431Z,1.70
2022-10-25T06:18:58.730Z,1.88
2022-10-25T06:21:31.897Z,1.70
2022-10-25T06:26:39.333Z,2.78
2022-10-25T06:29:12.118Z,1.95
2022-10-25T06:31:45.086Z,2.20
2022-10-25T06:34:18.206Z,2.20
2022-10-25T06:39:24.883Z,2.00
2022-10-25T06:41:59.111Z,2.22
2022-10-25T06:44:31.902Z,2.05
2022-10-25T06:47:16.526Z,2.63
2022-10-25T06:49:50.727Z,3.00
2022-10-25T06:54:56.267Z,2.10
2022-10-25T06:57:30.427Z,2.35
2022-10-25T07:00:03.355Z,2.35
2022-10-25T07:02:36.019Z,2.25
2022-10-25T07:05:09.641Z,2.38
2022-10-25T07:07:42.423Z,2.75
2022-10-25T07:10:15.369Z,2.85
2022-10-25T07:12:49.631Z,2.60
2022-10-25T07:15:25.047Z,2.97
2022-10-25T07:17:57.944Z,2.70
2022-10-25T07:20:30.803Z,2.03
2022-10-25T07:23:06.600Z,1.67
2022-10-25T07:25:41.376Z,2.08
2022-10-25T07:28:15.514Z,2.00
2022-10-25T07:30:49.283Z,1.98
2022-10-25T07:33:24.873Z,1.77
2022-10-25T07:36:10.224Z,2.22
2022-10-25T07:38:43.894Z,1.80
2022-10-25T07:41:17.157Z,1.95
2022-10-25T07:43:51.357Z,1.92
2022-10-25T07:46:24.953Z,1.70
2022-10-25T07:48:57.835Z,1.73
2022-10-25T07:51:31.314Z,1.65
2022-10-25T07:54:04.248Z,1.95
2022-10-25T07:59:11.137Z,1.92
2022-10-25T08:01:44.111Z,1.60
2022-10-25T08:06:53.198Z,2.30
2022-10-25T08:09:39.075Z,2.22
2022-10-25T08:12:12.046Z,3.35
2022-10-25T08:17:22.397Z,2.03
2022-10-25T08:19:56.411Z,2.05
2022-10-25T08:22:29.283Z,1.58
2022-10-25T08:25:02.840Z,2.00
2022-10-25T08:27:35.706Z,1.98
2022-10-25T08:32:46.216Z,2.30
2022-10-25T08:35:19.718Z,2.75
2022-10-25T08:38:00.590Z,3.00
2022-10-25T08:40:44.047Z,2.78
2022-10-25T08:46:02.107Z,3.22
2022-10-25T08:48:38.325Z,5.32
2022-10-25T08:51:22.430Z,5.28
2022-10-25T08:53:59.920Z,3.88
2022-10-25T08:56:39.490Z,3.97
2022-10-25T08:59:21.868Z,4.53
2022-10-25T09:01:59.446Z,5.60
2022-10-25T09:04:34.440Z,5.43
2022-10-25T09:07:13.895Z,4.93
2022-10-25T09:09:54.645Z,5.15
2022-10-25T09:12:40.915Z,5.40
2022-10-25T09:15:21.162Z,5.47
2022-10-25T09:17:55.685Z,6.05
2022-10-25T09:20:33.896Z,6.30
2022-10-25T09:23:17.058Z,5.80
2022-10-25T09:28:35.162Z,6.38
2022-10-25T09:31:14.253Z,6.85
2022-10-25T09:33:49.249Z,6.63
2022-10-25T09:36:25.958Z,6.18
2022-10-25T09:39:02.940Z,5.47
2022-10-25T09:41:48.116Z,5.93
2022-10-25T09:44:39.941Z,5.93
2022-10-25T09:47:25.208Z,5.80
2022-10-25T09:50:02.950Z,5.63
2022-10-25T09:52:45.156Z,6.75
2022-10-25T09:55:41.169Z,5.57
2022-10-25T09:58:23.744Z,5.07
2022-10-25T10:00:59.654Z,5.13
2022-10-25T10:03:35.296Z,5.25
2022-10-25T10:06:18.755Z,5.53
2022-10-25T10:08:54.375Z,4.65
2022-10-25T10:11:27.786Z,4.97
2022-10-25T10:14:09.150Z,4.10
2022-10-25T10:16:46.139Z,4.88
2022-10-25T10:19:21.235Z,5.38
2022-10-25T10:21:58.242Z,4.47
2022-10-25T10:24:33.777Z,4.53
2022-10-25T10:27:15.457Z,4.68
2022-10-25T10:29:56.337Z,4.47
2022-10-25T10:32:34.736Z,4.55
2022-10-25T10:35:25.533Z,5.78
2022-10-25T10:38:25.846Z,5.07
2022-10-25T10:41:15.694Z,5.15
2022-10-25T10:43:49.872Z,5.45
2022-10-25T10:46:24.701Z,4.85
2022-10-25T10:48:59.118Z,5.35
2022-10-25T10:51:45.116Z,5.00
2022-10-25T10:54:47.175Z,4.50
2022-10-25T10:57:29.649Z,5.18
2022-10-25T11:00:03.385Z,4.22
2022-10-25T11:02:41.683Z,5.22
2022-10-25T11:05:26.544Z,5.15
2022-10-25T11:08:03.305Z,4.60
2022-10-25T11:10:38.306Z,3.63
2022-10-25T11:13:14.167Z,5.72
2022-10-25T11:16:21.958Z,4.03
2022-10-25T11:19:18.095Z,4.00
2022-10-25T11:22:04.659Z,4.55
2022-10-25T11:24:44.456Z,4.28
2022-10-25T11:27:29.159Z,4.30
2022-10-25T11:30:10.753Z,3.50
2022-10-25T11:33:06.247Z,4.90
2022-10-25T11:35:52.025Z,3.83
2022-10-25T11:38:40.086Z,4.30
2022-10-25T11:41:28.269Z,3.25
2022-10-25T11:44:18.788Z,3.47
2022-10-25T11:46:57.667Z,2.75
2022-10-25T11:49:44.445Z,3.47
2022-10-25T11:52:38.261Z,3.75
2022-10-25T11:55:22.681Z,2.97
2022-10-25T11:58:08.152Z,3.08
2022-10-25T12:00:53.527Z,3.20
2022-10-25T12:03:42.968Z,2.95
2022-10-25T12:06:24.224Z,3.50
2022-10-25T12:09:05.866Z,3.45
2022-10-25T12:11:44.458Z,3.05
2022-10-25T12:14:23.885Z,2.92
2022-10-25T12:17:01.293Z,3.03
2022-10-25T12:19:44.162Z,2.42
2022-10-25T12:22:21.190Z,2.83
2022-10-25T12:24:59.294Z,2.70
2022-10-25T12:27:33.649Z,2.22
2022-10-25T12:30:15.073Z,2.42
2022-10-25T12:32:55.069Z,2.90
2022-10-25T12:35:31.417Z,3.45
2022-10-25T12:38:10.818Z,2.92
2022-10-25T12:40:47.708Z,3.25
2022-10-25T12:43:26.138Z,2.60
2022-10-25T12:46:17.562Z,2.53
2022-10-25T12:49:14.416Z,2.80
2022-10-25T12:52:00.967Z,2.92
2022-10-25T12:55:10.931Z,3.20
2022-10-25T12:57:53.576Z,2.88
2022-10-25T13:00:27.687Z,3.03
2022-10-25T13:03:38.048Z,2.53
2022-10-25T13:06:23.326Z,2.20
2022-10-25T13:09:03.843Z,2.92
2022-10-25T13:11:40.170Z,2.10
2022-10-25T13:14:24.667Z,2.40
2022-10-25T13:17:36.644Z,2.80
2022-10-25T13:20:48.131Z,2.50
2022-10-25T13:23:59.381Z,3.63
2022-10-25T13:27:16.367Z,2.28
2022-10-25T13:30:22.421Z,1.98
2022-10-25T13:33:33.686Z,2.70
2022-10-25T13:36:09.503Z,2.17
2022-10-25T13:38:42.667Z,2.00
2022-10-25T13:41:18.079Z,1.98
2022-10-25T13:44:02.802Z,1.90
2022-10-25T13:46:38.693Z,2.25
2022-10-25T13:49:33.638Z,2.05
2022-10-25T13:52:22.217Z,2.05
2022-10-25T13:54:57.562Z,1.60
2022-10-25T13:57:52.470Z,1.98
2022-10-25T14:00:36.007Z,1.73
2022-10-25T14:03:47.220Z,2.38
2022-10-25T14:06:28.647Z,1.70
2022-10-25T14:09:13.703Z,2.13
2022-10-25T14:11:52.521Z,1.88
2022-10-25T14:14:29.567Z,2.15
2022-10-25T14:17:17.768Z,1.80
2022-10-25T14:19:55.078Z,1.67
2022-10-25T14:22:32.951Z,1.75
2022-10-25T14:25:19.867Z,1.70
2022-10-25T14:28:05.831Z,2.35
2022-10-25T14:30:43.859Z,1.55
2022-10-25T14:33:26.461Z,2.00
2022-10-25T14:36:09.772Z,1.80
2022-10-25T14:41:26.974Z,1.17
2022-10-25T14:44:00.551Z,2.13
2022-10-25T14:46:34.024Z,2.05
2022-10-25T14:49:10.769Z,1.70
2022-10-25T14:51:45.555Z,1.88
2022-10-25T14:54:28.301Z,1.83
2022-10-25T14:57:04.848Z,1.77
2022-10-25T14:59:44.940Z,1.90
2022-10-25T15:02:23.387Z,1.98
2022-10-25T15:04:59.877Z,1.92
2022-10-25T15:07:34.883Z,2.38
2022-10-25T15:10:28.736Z,1.58
2022-10-25T15:13:05.888Z,2.28
2022-10-25T15:15:42.374Z,1.85
2022-10-25T15:18:28.337Z,1.83
2022-10-25T15:21:08.112Z,1.92
2022-10-25T15:23:44.999Z,1.73
2022-10-25T15:26:22.721Z,2.15
2022-10-25T15:28:58.769Z,1.83
2022-10-25T15:31:36.307Z,1.55
2022-10-25T15:34:16.013Z,2.22
2022-10-25T15:36:50.017Z,1.88
2022-10-25T15:39:27.385Z,1.80
2022-10-25T15:42:00.451Z,1.48
2022-10-25T15:44:34.684Z,2.00
2022-10-25T15:47:21.103Z,1.73
2022-10-25T15:49:54.709Z,1.70
2022-10-25T15:52:29.938Z,1.83
2022-10-25T15:55:17.389Z,1.90
2022-10-25T15:57:51.180Z,1.75
2022-10-25T16:00:28.159Z,1.50
2022-10-25T16:03:01.990Z,1.42
2022-10-25T16:05:36.662Z,1.52
2022-10-25T16:08:10.436Z,1.33
2022-10-25T16:10:43.358Z,2.08
2022-10-25T16:13:19.643Z,1.42
2022-10-25T16:15:54.254Z,1.52
2022-10-25T16:18:27.646Z,1.08
2022-10-25T16:21:00.919Z,1.50
2022-10-25T16:23:36.730Z,1.70
2022-10-25T16:26:22.849Z,1.40
2022-10-25T16:28:55.909Z,1.45
2022-10-25T16:34:02.932Z,1.40
2022-10-25T16:36:39.054Z,1.42
2022-10-25T16:39:12.557Z,1.60
2022-10-25T16:41:47.264Z,1.98
2022-10-25T16:44:21.052Z,1.67
2022-10-25T16:47:00.038Z,1.40
2022-10-25T16:52:23.057Z,1.60
2022-10-25T16:54:59.945Z,1.38
2022-10-25T16:57:36.120Z,1.50
2022-10-25T17:00:15.391Z,1.77
2022-10-25T17:02:56.809Z,1.48
2022-10-25T17:05:35.081Z,1.85
2022-10-25T17:08:26.870Z,1.77
2022-10-25T17:11:10.277Z,1.77
2022-10-25T17:13:49.124Z,1.63
2022-10-25T17:16:24.701Z,1.45
2022-10-25T17:19:06.037Z,1.58
2022-10-25T17:21:40.427Z,1.20
2022-10-25T17:24:16.800Z,1.80
2022-10-25T17:26:56.944Z,1.65
2022-10-25T17:29:39.586Z,1.75
2022-10-25T17:32:22.272Z,1.40
2022-10-25T17:34:59.583Z,2.65
2022-10-25T17:37:33.082Z,1.50
2022-10-25T17:40:09.439Z,1.60
2022-10-25T17:42:42.497Z,1.50
2022-10-25T17:47:48.543Z,1.90
2022-10-25T17:50:23.499Z,1.92
2022-10-25T17:52:56.629Z,1.20
2022-10-25T17:58:06.800Z,1.80
2022-10-25T18:03:16.272Z,1.58
2022-10-25T18:05:50.668Z,2.65
2022-10-25T18:08:23.591Z,1.73
2022-10-25T18:10:56.414Z,2.97
2022-10-25T18:13:33.652Z,2.28
2022-10-25T18:18:40.967Z,1.85
2022-10-25T18:21:19.284Z,1.88
2022-10-25T18:23:56.005Z,2.05
2022-10-25T18:26:33.347Z,2.45
2022-10-25T18:29:06.412Z,2.30
2022-10-25T18:34:12.208Z,2.33
2022-10-25T18:36:46.725Z,2.10
2022-10-25T18:39:19.644Z,2.85
2022-10-25T18:41:52.644Z,2.42
2022-10-25T18:47:00.317Z,2.30
2022-10-25T18:49:33.302Z,2.33
2022-10-25T18:52:11.934Z,2.42
2022-10-25T18:54:46.924Z,2.90
2022-10-25T18:57:21.397Z,2.30
2022-10-25T18:59:54.369Z,2.55
2022-10-25T19:02:34.131Z,2.10
2022-10-25T19:05:11.001Z,2.58
2022-10-25T19:07:48.146Z,2.50
2022-10-25T19:10:23.038Z,2.65
2022-10-25T19:12:56.169Z,2.35
2022-10-25T19:15:29.526Z,2.17
2022-10-25T19:18:10.043Z,2.63
2022-10-25T19:20:50.830Z,2.95
2022-10-25T19:23:26.467Z,2.03
2022-10-25T19:26:04.577Z,2.40
2022-10-25T19:28:44.796Z,2.38
2022-10-25T19:31:18.741Z,2.42
2022-10-25T19:33:52.953Z,1.98
2022-10-25T19:36:25.990Z,2.38
2022-10-25T19:41:39.406Z,2.70
2022-10-25T19:44:12.458Z,2.78
2022-10-25T19:46:49.273Z,2.38
2022-10-25T19:49:22.320Z,2.33
2022-10-25T19:51:57.441Z,2.40
2022-10-25T19:54:33.050Z,2.33
2022-10-25T19:57:06.628Z,2.28
2022-10-25T19:59:39.725Z,2.20
2022-10-25T20:04:45.516Z,2.30
2022-10-25T20:07:20.876Z,2.15
2022-10-25T20:09:55.036Z,2.13
2022-10-25T20:12:30.554Z,1.98
2022-10-25T20:15:03.404Z,2.10
2022-10-25T20:17:39.462Z,2.58
2022-10-25T20:20:12.896Z,2.00
2022-10-25T20:22:48.975Z,2.22
2022-10-25T20:25:23.396Z,1.90
2022-10-25T20:27:57.489Z,1.98
2022-10-25T20:30:31.546Z,2.28
2022-10-25T20:33:06.021Z,2.00
2022-10-25T20:35:39.996Z,1.80
2022-10-25T20:38:13.198Z,1.83
2022-10-25T20:40:47.408Z,2.42
2022-10-25T20:43:22.163Z,2.30
2022-10-25T20:45:55.581Z,1.73
2022-10-25T20:48:28.712Z,1.83
2022-10-25T20:51:04.244Z,1.95
2022-10-25T20:53:40.237Z,1.48
2022-10-25T20:56:14.928Z,2.05
2022-10-25T20:58:50.840Z,1.75
2022-10-25T21:01:26.223Z,1.83
2022-10-25T21:03:59.171Z,1.60
2022-10-25T21:06:32.031Z,2.00
2022-10-25T21:09:05.115Z,1.80
2022-10-25T21:11:39.602Z,1.80
2022-10-25T21:14:13.714Z,1.85
2022-10-25T21:16:46.658Z,1.60
2022-10-25T21:19:19.611Z,2.00
2022-10-25T21:21:55.319Z,1.20
2022-10-25T21:24:30.474Z,1.75
2022-10-25T21:27:04.860Z,1.73
2022-10-25T21:29:38.542Z,2.00
2022-10-25T21:32:11.404Z,1.95
2022-10-25T21:34:44.156Z,2.30
2022-10-25T21:37:17.157Z,1.98
2022-10-25T21:42:24.093Z,1.80
2022-10-25T21:44:56.845Z,1.73
2022-10-25T21:47:29.620Z,1.70
2022-10-25T21:50:02.793Z,1.90
2022-10-25T21:52:35.922Z,2.42
2022-10-25T21:55:10.032Z,2.05
2022-10-25T21:57:51.831Z,1.77
2022-10-25T22:00:29.681Z,2.15
2022-10-25T22:03:02.621Z,2.00
2022-10-25T22:08:08.114Z,1.83
2022-10-25T22:10:41.446Z,2.00
2022-10-25T22:13:15.712Z,1.90
2022-10-25T22:15:56.473Z,2.00
2022-10-25T22:18:29.830Z,2.15
2022-10-25T22:21:04.837Z,1.83
2022-10-25T22:23:37.881Z,2.00
2022-10-25T22:28:46.427Z,2.00
2022-10-25T22:31:20.338Z,2.45
2022-10-25T22:33:54.729Z,2.67
2022-10-25T22:36:29.760Z,2.42
2022-10-25T22:39:03.727Z,1.83
2022-10-25T22:41:36.848Z,2.50
2022-10-25T22:44:13.229Z,2.60
2022-10-25T22:46:46.073Z,2.20
2022-10-25T22:49:21.726Z,1.92
2022-10-25T22:51:54.462Z,2.35
2022-10-25T22:54:28.801Z,2.40
2022-10-25T22:57:01.550Z,2.92
2022-10-25T22:59:35.922Z,2.28
2022-10-25T23:02:08.791Z,2.42
2022-10-25T23:04:41.506Z,2.15
2022-10-25T23:07:14.422Z,2.30
2022-10-25T23:09:47.252Z,2.70
2022-10-25T23:12:21.811Z,2.33
2022-10-25T23:14:56.062Z,2.55
2022-10-25T23:17:29.295Z,2.10
2022-10-25T23:20:02.343Z,2.50
2022-10-25T23:25:13.182Z,2.05
2022-10-25T23:27:46.129Z,2.25
2022-10-25T23:32:53.558Z,2.42
2022-10-25T23:35:26.238Z,3.10
2022-10-25T23:37:59.101Z,1.95
2022-10-25T23:40:32.518Z,2.33
2022-10-25T23:43:05.521Z,2.70
2022-10-25T23:45:39.883Z,2.63
2022-10-25T23:48:12.716Z,2.50
2022-10-25T23:50:45.699Z,2.67
2022-10-25T23:53:18.474Z,2.15
2022-10-25T23:55:52.629Z,2.92
2022-10-25T23:58:25.630Z,2.45
